Terminal Aerodrome Forecast
Issued by NWS Cleveland, OH

Home | Current Version | Previous Version | Text Only | Print | Product List | Glossary On
Versions: 1 2 3 4 5 6 7 8 9 10 11 12 13 14 15 16 17 18 19 20 21 22 23 24 25 26 27 28 29 30 31 32
000
FTUS41 KCLE 070300 AAA
TAFERI
TAF AMD
KERI 070327Z 0703/0724 VRB03KT P6SM SKC
     FM070700 VRB03KT 3SM BR SKC
     FM070900 VRB03KT 2SM BR OVC007
     FM071500 VRB03KT 4SM BR SCT001
     FM071700 34005KT P6SM SKC=

USA.gov is the U.S. government's official web portal to all federal, state and local government web resources and services.